createdAt,value
2023-03-24T00:02:04.672Z,98183.55
2023-03-24T00:04:58.688Z,98183.64
2023-03-24T00:10:37.051Z,98181.84
2023-03-24T00:13:29.284Z,98182.07
2023-03-24T00:16:22.261Z,98185.04
2023-03-24T00:19:15.263Z,98184.37
2023-03-24T00:22:08.098Z,98178.73
2023-03-24T00:25:00.379Z,98185.27
2023-03-24T00:27:53.268Z,98177.05
2023-03-24T00:30:35.062Z,98175.52
2023-03-24T00:33:27.431Z,98173.31
2023-03-24T00:36:22.108Z,98166.31
2023-03-24T00:39:14.247Z,98165.75
2023-03-24T00:42:07.293Z,98158.19
2023-03-24T00:44:59.558Z,98157.09
2023-03-24T00:47:54.066Z,98153.97
2023-03-24T00:50:33.497Z,98150.85
2023-03-24T00:53:29.553Z,98143.11
2023-03-24T00:56:22.577Z,98140.27
2023-03-24T00:59:14.708Z,98139.87
2023-03-24T01:02:06.996Z,98137.81
2023-03-24T01:05:02.105Z,98135.98
2023-03-24T01:07:34.111Z,98131.90
2023-03-24T01:10:27.260Z,98130.45
2023-03-24T01:13:20.250Z,98125.43
2023-03-24T01:16:13.527Z,98119.64
2023-03-24T01:19:06.716Z,98117.58
2023-03-24T01:21:59.539Z,98115.40
2023-03-24T01:24:36.951Z,98115.54
2023-03-24T01:27:29.128Z,98113.11
2023-03-24T01:30:23.288Z,98113.36
2023-03-24T01:33:15.470Z,98110.48
2023-03-24T01:36:09.723Z,98108.95
2023-03-24T01:39:02.042Z,98107.30
2023-03-24T01:41:54.176Z,98108.88
2023-03-24T01:44:49.076Z,98106.02
2023-03-24T01:47:41.149Z,98106.06
2023-03-24T01:50:34.108Z,98106.10
2023-03-24T01:53:27.841Z,98112.41
2023-03-24T01:56:20.837Z,98110.80
2023-03-24T01:59:19.475Z,98108.41
2023-03-24T02:02:13.804Z,98103.52
2023-03-24T02:05:09.625Z,98104.55
2023-03-24T02:08:07.126Z,98101.41
2023-03-24T02:11:00.351Z,98098.73
2023-03-24T02:13:52.661Z,98097.38
2023-03-24T02:17:01.412Z,98095.89
2023-03-24T02:20:13.580Z,98097.52
2023-03-24T02:23:39.903Z,98096.73
2023-03-24T02:26:49.409Z,98098.35
2023-03-24T02:30:11.901Z,98095.02
2023-03-24T02:33:31.009Z,98088.13
2023-03-24T02:36:55.771Z,98086.65
2023-03-24T02:40:16.284Z,98080.04
2023-03-24T02:43:25.456Z,98076.56
2023-03-24T02:46:23.947Z,98080.39
2023-03-24T02:49:23.679Z,98078.30
2023-03-24T02:52:23.357Z,98072.11
2023-03-24T02:55:21.487Z,98070.71
2023-03-24T02:58:20.061Z,98071.66
2023-03-24T03:01:19.846Z,98074.83
2023-03-24T03:04:17.910Z,98072.96
2023-03-24T03:07:12.748Z,98072.46
2023-03-24T03:10:12.208Z,98073.77
2023-03-24T03:13:09.173Z,98074.20
2023-03-24T03:16:05.961Z,98072.41
2023-03-24T03:19:01.573Z,98070.15
2023-03-24T03:21:55.823Z,98072.21
2023-03-24T03:24:50.339Z,98078.18
2023-03-24T03:27:46.799Z,98075.23
2023-03-24T03:30:43.306Z,98075.92
2023-03-24T03:33:40.604Z,98074.26
2023-03-24T03:36:36.932Z,98076.08
2023-03-24T03:39:24.123Z,98072.21
2023-03-24T03:42:16.690Z,98066.78
2023-03-24T03:45:11.182Z,98070.20
2023-03-24T03:48:03.493Z,98071.77
2023-03-24T03:51:10.260Z,98071.41
2023-03-24T03:54:08.793Z,98069.75
2023-03-24T03:57:01.472Z,98070.44
2023-03-24T03:59:53.570Z,98071.10
2023-03-24T04:03:17.854Z,98065.16
2023-03-24T04:06:19.515Z,98065.94
2023-03-24T04:09:27.407Z,98064.52
2023-03-24T04:12:39.378Z,98063.70
2023-03-24T04:15:40.496Z,98065.09
2023-03-24T04:18:47.172Z,98063.33
2023-03-24T04:21:55.005Z,98066.08
2023-03-24T04:24:51.696Z,98063.63
2023-03-24T04:27:38.564Z,98062.15
2023-03-24T04:30:39.975Z,98059.31
2023-03-24T04:33:22.437Z,98061.64
2023-03-24T04:36:22.352Z,98059.00
2023-03-24T04:39:18.366Z,98063.11
2023-03-24T04:42:14.536Z,98062.61
2023-03-24T04:45:09.057Z,98063.05
2023-03-24T04:48:04.694Z,98063.77
2023-03-24T04:51:01.076Z,98063.19
2023-03-24T04:53:53.159Z,98062.27
2023-03-24T04:56:48.414Z,98060.16
2023-03-24T04:59:40.602Z,98065.33
2023-03-24T05:02:32.675Z,98068.44
2023-03-24T05:05:24.724Z,98059.23
2023-03-24T05:08:17.546Z,98050.61
2023-03-24T05:11:10.155Z,98047.11
2023-03-24T05:14:02.174Z,98044.21
2023-03-24T05:16:54.235Z,98043.88
2023-03-24T05:19:46.408Z,98046.79
2023-03-24T05:22:38.616Z,98044.75
2023-03-24T05:25:30.680Z,98049.30
2023-03-24T05:28:22.663Z,98044.06
2023-03-24T05:31:14.902Z,98045.60
2023-03-24T05:34:07.156Z,98043.89
2023-03-24T05:36:59.156Z,98039.69
2023-03-24T05:39:51.398Z,98039.83
2023-03-24T05:42:43.608Z,98038.23
2023-03-24T05:45:35.617Z,98043.94
2023-03-24T05:48:27.974Z,98044.02
2023-03-24T05:51:19.965Z,98044.27
2023-03-24T05:54:12.569Z,98038.08
2023-03-24T05:57:04.648Z,98041.17
2023-03-24T05:59:56.742Z,98039.40
2023-03-24T06:02:48.855Z,98041.58
2023-03-24T06:05:40.905Z,98038.38
2023-03-24T06:08:33.967Z,98038.89
2023-03-24T06:11:25.914Z,98040.20
2023-03-24T06:14:17.904Z,98034.02
2023-03-24T06:17:14.749Z,98033.61
2023-03-24T06:20:14.021Z,98025.38
2023-03-24T06:23:05.968Z,98030.17
2023-03-24T06:26:01.221Z,98035.14
2023-03-24T06:28:53.556Z,98033.73
2023-03-24T06:31:45.593Z,98036.16
2023-03-24T06:34:38.857Z,98035.70
2023-03-24T06:37:31.459Z,98036.90
2023-03-24T06:40:23.603Z,98038.16
2023-03-24T06:43:11.950Z,98037.52
2023-03-24T06:46:04.750Z,98041.07
2023-03-24T06:48:49.070Z,98039.42
2023-03-24T06:51:39.589Z,98035.46
2023-03-24T06:54:31.603Z,98033.84
2023-03-24T06:57:23.589Z,98033.71
2023-03-24T07:00:16.554Z,98029.61
2023-03-24T07:03:09.015Z,98028.64
2023-03-24T07:06:01.905Z,98028.25
2023-03-24T07:08:54.128Z,98033.49
2023-03-24T07:11:46.477Z,98036.88
2023-03-24T07:14:38.521Z,98031.62
2023-03-24T07:17:15.870Z,98033.52
2023-03-24T07:20:09.520Z,98031.66
2023-03-24T07:23:01.639Z,98030.86
2023-03-24T07:25:53.962Z,98030.98
2023-03-24T07:28:46.009Z,98030.39
2023-03-24T07:31:38.783Z,98034.42
2023-03-24T07:34:19.579Z,98035.65
2023-03-24T07:37:11.930Z,98033.51
2023-03-24T07:40:05.739Z,98023.77
2023-03-24T07:43:01.330Z,98021.17
2023-03-24T07:45:53.394Z,98019.70
2023-03-24T07:48:45.750Z,98019.84
2023-03-24T07:51:40.102Z,98016.26
2023-03-24T07:54:33.486Z,98010.61
2023-03-24T07:57:25.796Z,98005.67
2023-03-24T08:00:20.022Z,98000.73
2023-03-24T08:03:14.246Z,97999.55
2023-03-24T08:06:07.706Z,97996.55
2023-03-24T08:08:59.723Z,97993.95
2023-03-24T08:11:41.784Z,97989.59
2023-03-24T08:14:33.791Z,97993.05
2023-03-24T08:17:25.909Z,97987.31
2023-03-24T08:20:19.341Z,97990.55
2023-03-24T08:23:11.284Z,97987.00
2023-03-24T08:26:03.257Z,97980.91
2023-03-24T08:28:55.315Z,97978.75
2023-03-24T08:31:47.355Z,97975.91
2023-03-24T08:34:39.532Z,97970.45
2023-03-24T08:37:31.564Z,97972.60
2023-03-24T08:40:25.066Z,97967.01
2023-03-24T08:43:17.963Z,97964.81
2023-03-24T08:45:52.916Z,97962.11
2023-03-24T08:48:44.989Z,97960.65
2023-03-24T08:51:26.300Z,97954.11
2023-03-24T08:54:18.514Z,97951.02
2023-03-24T08:57:10.569Z,97946.00
2023-03-24T09:00:08.777Z,97940.95
2023-03-24T09:02:53.862Z,97938.00
2023-03-24T09:05:46.629Z,97928.98
2023-03-24T09:08:39.241Z,97925.92
2023-03-24T09:11:27.909Z,97921.19
2023-03-24T09:14:19.912Z,97918.04
2023-03-24T09:17:12.027Z,97912.75
2023-03-24T09:19:55.307Z,97911.03
2023-03-24T09:22:48.376Z,97911.21
2023-03-24T09:25:40.815Z,97906.45
2023-03-24T09:28:16.242Z,97908.10
2023-03-24T09:30:57.252Z,97902.64
2023-03-24T09:33:49.335Z,97899.61
2023-03-24T09:36:27.209Z,97899.92
2023-03-24T09:39:20.164Z,97898.56
2023-03-24T09:42:21.670Z,97896.77
2023-03-24T09:45:19.360Z,97890.36
2023-03-24T09:48:19.152Z,97886.52
2023-03-24T09:51:03.876Z,97883.90
2023-03-24T09:54:03.449Z,97880.33
2023-03-24T09:56:58.439Z,97878.04
2023-03-24T09:59:50.607Z,97869.87
2023-03-24T10:02:43.026Z,97868.33
2023-03-24T10:05:57.086Z,97872.33
2023-03-24T10:08:55.569Z,97871.38
2023-03-24T10:11:54.646Z,97871.38
2023-03-24T10:15:05.121Z,97869.00
2023-03-24T10:18:02.920Z,97866.84
2023-03-24T10:20:59.388Z,97869.29
2023-03-24T10:23:58.940Z,97868.89
2023-03-24T10:26:59.794Z,97870.80
2023-03-24T10:29:45.954Z,97867.81
2023-03-24T10:32:38.870Z,97864.67
2023-03-24T10:35:34.416Z,97866.99
2023-03-24T10:38:26.988Z,97865.35
2023-03-24T10:41:21.508Z,97860.49
2023-03-24T10:44:14.882Z,97859.61
2023-03-24T10:47:08.521Z,97858.79
2023-03-24T10:50:00.783Z,97856.45
2023-03-24T10:53:17.368Z,97858.67
2023-03-24T10:56:14.679Z,97854.28
2023-03-24T10:59:16.757Z,97849.11
2023-03-24T11:01:52.376Z,97839.88
2023-03-24T11:04:51.750Z,97839.31
2023-03-24T11:07:46.384Z,97842.73
2023-03-24T11:10:38.618Z,97843.17
2023-03-24T11:13:34.139Z,97840.50
2023-03-24T11:16:30.324Z,97837.84
2023-03-24T11:19:23.565Z,97832.70
2023-03-24T11:22:06.699Z,97826.33
2023-03-24T11:24:59.989Z,97820.42
2023-03-24T11:27:52.205Z,97813.09
2023-03-24T11:30:50.575Z,97808.47
2023-03-24T11:33:51.367Z,97799.95
2023-03-24T11:36:55.572Z,97799.61
2023-03-24T11:40:10.789Z,97798.48
2023-03-24T11:43:04.404Z,97785.21
2023-03-24T11:46:02.160Z,97779.41
2023-03-24T11:48:59.806Z,97777.92
2023-03-24T11:51:54.970Z,97776.15
2023-03-24T11:54:47.057Z,97770.85
2023-03-24T11:57:46.620Z,97769.43
2023-03-24T12:00:44.844Z,97766.95
2023-03-24T12:03:53.107Z,97769.45
2023-03-24T12:07:00.487Z,97771.74
2023-03-24T12:09:58.193Z,97765.63
2023-03-24T12:12:59.180Z,97765.00
2023-03-24T12:15:42.426Z,97766.92
2023-03-24T12:18:41.648Z,97762.62
2023-03-24T12:21:47.019Z,97758.56
2023-03-24T12:24:57.664Z,97752.91
2023-03-24T12:27:57.632Z,97751.70
2023-03-24T12:30:59.257Z,97753.16
2023-03-24T12:33:51.039Z,97747.79
2023-03-24T12:36:55.687Z,97748.34
2023-03-24T12:39:56.837Z,97740.41
2023-03-24T12:42:59.848Z,97740.73
2023-03-24T12:45:55.850Z,97739.02
2023-03-24T12:49:03.904Z,97736.93
2023-03-24T12:52:14.965Z,97735.52
2023-03-24T12:55:12.421Z,97733.88
2023-03-24T12:58:12.198Z,97735.94
2023-03-24T13:01:03.103Z,97731.95
2023-03-24T13:04:01.923Z,97725.70
2023-03-24T13:06:58.695Z,97722.09
2023-03-24T13:09:55.858Z,97714.64
2023-03-24T13:12:54.181Z,97713.25
2023-03-24T13:15:50.266Z,97712.97
2023-03-24T13:18:32.626Z,97708.23
2023-03-24T13:21:26.489Z,97706.94
2023-03-24T13:24:20.924Z,97707.04
2023-03-24T13:27:03.781Z,97707.95
2023-03-24T13:30:17.769Z,97703.30
2023-03-24T13:33:15.888Z,97699.70
2023-03-24T13:36:13.641Z,97701.07
2023-03-24T13:39:12.332Z,97699.65
2023-03-24T13:41:56.831Z,97692.59
2023-03-24T13:44:44.303Z,97690.72
2023-03-24T13:47:26.635Z,97690.63
2023-03-24T13:50:19.348Z,97685.80
2023-03-24T13:53:16.506Z,97684.09
2023-03-24T13:55:53.996Z,97680.38
2023-03-24T13:59:08.739Z,97675.44
2023-03-24T14:02:21.827Z,97673.50
2023-03-24T14:05:05.736Z,97673.46
2023-03-24T14:07:49.386Z,97673.30
2023-03-24T14:10:44.471Z,97668.93
2023-03-24T14:13:50.271Z,97670.20
2023-03-24T14:16:50.232Z,97668.09
2023-03-24T14:19:44.256Z,97662.81
2023-03-24T14:22:40.724Z,97660.11
2023-03-24T14:25:36.783Z,97656.05
2023-03-24T14:28:32.832Z,97649.23
2023-03-24T14:31:29.619Z,97644.38
2023-03-24T14:34:27.688Z,97640.19
2023-03-24T14:37:19.995Z,97634.63
2023-03-24T14:40:29.693Z,97635.35
2023-03-24T14:43:27.288Z,97633.04
2023-03-24T14:46:42.548Z,97629.00
2023-03-24T14:49:34.959Z,97624.40
2023-03-24T14:52:20.361Z,97615.80
2023-03-24T14:55:17.583Z,97619.55
2023-03-24T14:58:21.644Z,97624.73
2023-03-24T15:01:14.088Z,97621.84
2023-03-24T15:04:08.966Z,97620.60
2023-03-24T15:07:06.226Z,97620.59
2023-03-24T15:09:49.152Z,97620.48
2023-03-24T15:12:46.351Z,97621.52
2023-03-24T15:15:38.474Z,97619.74
2023-03-24T15:18:30.837Z,97611.71
2023-03-24T15:21:29.317Z,97609.61
2023-03-24T15:24:29.972Z,97606.71
2023-03-24T15:27:27.272Z,97598.77
2023-03-24T15:30:19.869Z,97599.27
2023-03-24T15:33:14.486Z,97604.42
2023-03-24T15:36:14.180Z,97607.41
2023-03-24T15:39:21.918Z,97607.85
2023-03-24T15:42:19.745Z,97617.88
2023-03-24T15:45:23.014Z,97618.58
2023-03-24T15:48:19.168Z,97628.15
2023-03-24T15:51:12.839Z,97637.23
2023-03-24T15:54:04.980Z,97637.77
2023-03-24T15:57:16.537Z,97641.34
2023-03-24T16:00:16.378Z,97646.16
2023-03-24T16:03:09.839Z,97646.15
2023-03-24T16:06:02.752Z,97643.05
2023-03-24T16:08:54.984Z,97646.72
2023-03-24T16:11:47.005Z,97645.30
2023-03-24T16:14:39.603Z,97645.20
2023-03-24T16:17:21.730Z,97647.46
2023-03-24T16:20:21.746Z,97655.70
2023-03-24T16:23:14.368Z,97655.99
2023-03-24T16:26:06.585Z,97662.30
2023-03-24T16:29:12.982Z,97664.56
2023-03-24T16:32:05.566Z,97671.09
2023-03-24T16:34:58.573Z,97676.80
2023-03-24T16:37:50.543Z,97680.51
2023-03-24T16:40:46.363Z,97678.50
2023-03-24T16:43:38.429Z,97679.02
2023-03-24T16:46:18.645Z,97680.86
2023-03-24T16:49:13.458Z,97678.77
2023-03-24T16:51:56.806Z,97676.73
2023-03-24T16:54:50.532Z,97674.42
2023-03-24T16:57:42.520Z,97670.92
2023-03-24T17:00:37.104Z,97668.13
2023-03-24T17:03:10.249Z,97664.77
2023-03-24T17:06:03.561Z,97660.85
2023-03-24T17:08:55.828Z,97661.01
2023-03-24T17:11:51.486Z,97661.48
2023-03-24T17:14:44.460Z,97650.45
2023-03-24T17:17:37.827Z,97637.59
2023-03-24T17:20:29.901Z,97628.02
2023-03-24T17:23:22.062Z,97607.21
2023-03-24T17:26:14.421Z,97577.70
2023-03-24T17:29:06.776Z,97577.43
2023-03-24T17:31:58.806Z,97603.52
2023-03-24T17:34:50.932Z,97678.34
2023-03-24T17:37:42.990Z,97708.37
2023-03-24T17:40:35.009Z,97714.71
2023-03-24T17:43:27.520Z,97713.15
2023-03-24T17:46:19.570Z,97707.09
2023-03-24T17:49:11.559Z,97704.04
2023-03-24T17:52:03.677Z,97704.02
2023-03-24T17:54:55.701Z,97701.47
2023-03-24T17:57:48.153Z,97709.46
2023-03-24T18:00:41.415Z,97707.58
2023-03-24T18:03:25.708Z,97707.00
2023-03-24T18:06:09.458Z,97706.05
2023-03-24T18:09:01.458Z,97709.44
2023-03-24T18:11:53.656Z,97716.45
2023-03-24T18:14:46.503Z,97709.09
2023-03-24T18:17:38.571Z,97706.11
2023-03-24T18:20:21.396Z,97696.92
2023-03-24T18:23:16.139Z,97703.43
2023-03-24T18:26:09.816Z,97699.19
2023-03-24T18:29:01.952Z,97696.30
2023-03-24T18:31:54.051Z,97688.95
2023-03-24T18:34:46.112Z,97673.63
2023-03-24T18:37:38.315Z,97672.15
2023-03-24T18:40:15.672Z,97687.21
2023-03-24T18:43:07.790Z,97671.66
2023-03-24T18:45:59.797Z,97668.90
2023-03-24T18:48:53.113Z,97683.09
2023-03-24T18:51:46.675Z,97706.08
2023-03-24T18:54:38.653Z,97701.48
2023-03-24T18:57:31.122Z,97706.98
2023-03-24T19:00:25.042Z,97696.92
2023-03-24T19:03:17.527Z,97695.60
2023-03-24T19:06:11.604Z,97686.06
2023-03-24T19:09:05.158Z,97677.29
2023-03-24T19:11:53.340Z,97682.52
2023-03-24T19:14:30.240Z,97690.02
2023-03-24T19:17:23.581Z,97682.35
2023-03-24T19:20:16.366Z,97688.08
2023-03-24T19:22:51.337Z,97694.08
2023-03-24T19:25:43.819Z,97684.33
2023-03-24T19:28:37.522Z,97681.77
2023-03-24T19:31:30.280Z,97674.62
2023-03-24T19:34:22.671Z,97673.05
2023-03-24T19:37:01.930Z,97669.14
2023-03-24T19:39:53.907Z,97678.40
2023-03-24T19:42:46.613Z,97681.98
2023-03-24T19:45:42.542Z,97678.96
2023-03-24T19:48:35.773Z,97680.64
2023-03-24T19:51:27.902Z,97682.40
2023-03-24T19:54:20.596Z,97681.65
2023-03-24T19:57:12.605Z,97679.72
2023-03-24T20:00:06.168Z,97682.80
2023-03-24T20:02:58.267Z,97684.45
2023-03-24T20:05:50.975Z,97683.27
2023-03-24T20:08:43.238Z,97684.88
2023-03-24T20:11:35.277Z,97681.80
2023-03-24T20:14:28.072Z,97681.17
2023-03-24T20:17:04.947Z,97679.48
2023-03-24T20:19:57.464Z,97679.84
2023-03-24T20:22:49.694Z,97681.24
2023-03-24T20:25:44.664Z,97677.34
2023-03-24T20:28:36.664Z,97675.82
2023-03-24T20:31:29.193Z,97674.16
2023-03-24T20:34:21.358Z,97672.03
2023-03-24T20:37:13.649Z,97677.86
2023-03-24T20:40:09.318Z,97680.05
2023-03-24T20:43:01.445Z,97682.41
2023-03-24T20:45:57.317Z,97684.05
2023-03-24T20:48:49.577Z,97686.84
2023-03-24T20:51:41.749Z,97686.39
2023-03-24T20:54:16.740Z,97695.48
2023-03-24T20:57:09.408Z,97697.19
2023-03-24T21:00:02.134Z,97696.00
2023-03-24T21:02:54.261Z,97694.56
2023-03-24T21:05:46.575Z,97694.56
2023-03-24T21:08:38.696Z,97693.24
2023-03-24T21:11:31.420Z,97686.46
2023-03-24T21:14:23.405Z,97681.78
2023-03-24T21:17:15.905Z,97681.27
2023-03-24T21:20:12.667Z,97683.81
2023-03-24T21:23:04.734Z,97691.55
2023-03-24T21:25:56.983Z,97690.77
2023-03-24T21:28:49.013Z,97698.73
2023-03-24T21:31:42.056Z,97689.57
2023-03-24T21:34:16.476Z,97688.78
2023-03-24T21:37:12.727Z,97690.80
2023-03-24T21:40:08.727Z,97689.16
2023-03-24T21:43:06.706Z,97689.60
2023-03-24T21:45:58.927Z,97685.95
2023-03-24T21:48:52.235Z,97686.15
2023-03-24T21:51:44.570Z,97684.91
2023-03-24T21:54:16.433Z,97687.25
2023-03-24T21:57:04.026Z,97683.59
2023-03-24T21:59:57.033Z,97682.06
2023-03-24T22:02:51.322Z,97683.08
2023-03-24T22:05:44.243Z,97685.38
2023-03-24T22:08:36.311Z,97678.69
2023-03-24T22:11:28.527Z,97674.45
2023-03-24T22:14:21.142Z,97676.27
2023-03-24T22:17:13.177Z,97681.71
2023-03-24T22:20:06.311Z,97686.04
2023-03-24T22:22:58.409Z,97681.45
2023-03-24T22:25:52.021Z,97685.98
2023-03-24T22:28:44.510Z,97684.17
2023-03-24T22:31:44.671Z,97671.84
2023-03-24T22:34:16.643Z,97671.66
2023-03-24T22:37:08.936Z,97673.80
2023-03-24T22:40:00.966Z,97677.91
2023-03-24T22:42:53.016Z,97677.05
2023-03-24T22:45:45.317Z,97680.05
2023-03-24T22:48:38.636Z,97675.85
2023-03-24T22:51:31.472Z,97679.48
2023-03-24T22:54:23.775Z,97679.06
2023-03-24T22:57:17.572Z,97676.20
2023-03-24T23:00:11.404Z,97669.13
2023-03-24T23:03:03.456Z,97668.93
2023-03-24T23:05:56.737Z,97658.59
2023-03-24T23:08:50.259Z,97656.98
2023-03-24T23:11:42.565Z,97657.30
2023-03-24T23:14:34.516Z,97651.63
2023-03-24T23:17:26.581Z,97651.60
2023-03-24T23:20:19.782Z,97661.71
2023-03-24T23:23:12.110Z,97669.83
2023-03-24T23:26:04.915Z,97671.30
2023-03-24T23:28:57.202Z,97670.77
2023-03-24T23:31:35.861Z,97666.41
2023-03-24T23:34:28.017Z,97670.61
2023-03-24T23:37:19.967Z,97664.02
2023-03-24T23:40:15.338Z,97656.99
2023-03-24T23:43:07.757Z,97654.56
2023-03-24T23:46:00.276Z,97645.67
2023-03-24T23:48:52.270Z,97646.70
2023-03-24T23:51:44.304Z,97644.48
2023-03-24T23:54:36.510Z,97645.38
2023-03-24T23:57:29.127Z,97651.05
